createdAt,value
2023-05-05T00:00:20.221Z,54.36
2023-05-05T00:01:19.356Z,54.25
2023-05-05T00:02:20.433Z,54.66
2023-05-05T00:03:20.545Z,54.66
2023-05-05T00:04:19.922Z,54.46
2023-05-05T00:05:19.755Z,54.86
2023-05-05T00:06:19.896Z,54.96
2023-05-05T00:07:19.953Z,55.16
2023-05-05T00:08:20.069Z,55.06
2023-05-05T00:09:19.151Z,55.26
2023-05-05T00:10:19.254Z,55.57
2023-05-05T00:11:19.406Z,55.36
2023-05-05T00:12:19.549Z,55.39
2023-05-05T00:13:19.612Z,55.39
2023-05-05T00:14:19.712Z,55.39
2023-05-05T00:15:19.889Z,55.59
2023-05-05T00:16:20.021Z,55.79
2023-05-05T00:17:19.078Z,55.79
2023-05-05T00:18:20.177Z,56.50
2023-05-05T00:19:20.218Z,55.79
2023-05-05T00:20:19.399Z,55.99
2023-05-05T00:21:19.521Z,56.10
2023-05-05T00:22:19.751Z,56.12
2023-05-05T00:23:19.769Z,55.92
2023-05-05T00:24:19.832Z,56.43
2023-05-05T00:25:18.894Z,56.52
2023-05-05T00:26:18.996Z,56.73
2023-05-05T00:27:19.129Z,56.52
2023-05-05T00:28:19.986Z,57.34
2023-05-05T00:29:20.313Z,57.43
2023-05-05T00:30:19.452Z,57.14
2023-05-05T00:31:20.459Z,57.23
2023-05-05T00:32:20.617Z,57.03
2023-05-05T00:33:19.749Z,57.14
2023-05-05T00:34:20.745Z,57.14
2023-05-05T00:35:18.841Z,57.14
2023-05-05T00:36:18.943Z,57.23
2023-05-05T00:37:19.040Z,56.63
2023-05-05T00:38:20.145Z,56.52
2023-05-05T00:39:23.217Z,56.23
2023-05-05T00:40:19.335Z,56.63
2023-05-05T00:41:20.435Z,56.73
2023-05-05T00:42:19.527Z,56.93
2023-05-05T00:43:19.641Z,57.23
2023-05-05T00:44:18.738Z,57.14
2023-05-05T00:45:18.913Z,57.84
2023-05-05T00:46:18.975Z,57.54
2023-05-05T00:47:19.030Z,57.43
2023-05-05T00:48:19.141Z,57.43
2023-05-05T00:49:19.317Z,57.64
2023-05-05T00:50:19.378Z,57.84
2023-05-05T00:51:19.438Z,58.04
2023-05-05T00:52:19.532Z,57.94
2023-05-05T00:53:18.604Z,58.04
2023-05-05T00:54:19.672Z,58.14
2023-05-05T00:55:19.786Z,58.25
2023-05-05T00:56:19.026Z,58.58
2023-05-05T00:57:20.007Z,57.87
2023-05-05T00:58:20.080Z,57.36
2023-05-05T00:59:19.300Z,57.67
2023-05-05T01:00:19.394Z,58.17
2023-05-05T01:01:19.511Z,58.47
2023-05-05T01:02:18.678Z,58.37
2023-05-05T01:03:18.780Z,58.47
2023-05-05T01:04:19.784Z,58.58
2023-05-05T01:05:18.871Z,58.27
2023-05-05T01:06:19.029Z,57.97
2023-05-05T01:07:19.074Z,58.27
2023-05-05T01:08:19.172Z,58.37
2023-05-05T01:09:19.348Z,58.17
2023-05-05T01:10:22.554Z,58.67
2023-05-05T01:11:18.490Z,58.98
2023-05-05T01:12:18.604Z,59.08
2023-05-05T01:13:18.810Z,58.67
2023-05-05T01:14:18.828Z,58.67
2023-05-05T01:15:18.986Z,58.67
2023-05-05T01:16:19.054Z,58.47
2023-05-05T01:17:19.222Z,57.97
2023-05-05T01:18:19.252Z,58.27
2023-05-05T01:19:18.322Z,58.98
2023-05-05T01:20:18.349Z,58.78
2023-05-05T01:21:18.443Z,58.58
2023-05-05T01:22:18.602Z,58.47
2023-05-05T01:23:19.724Z,58.67
2023-05-05T01:24:18.842Z,58.78
2023-05-05T01:25:19.842Z,58.78
2023-05-05T01:26:19.950Z,59.28
2023-05-05T01:27:20.071Z,58.98
2023-05-05T01:28:19.136Z,58.98
2023-05-05T01:29:18.290Z,59.08
2023-05-05T01:30:18.433Z,58.87
2023-05-05T01:31:18.601Z,58.98
2023-05-05T01:32:18.571Z,59.11
2023-05-05T01:33:18.729Z,59.21
2023-05-05T01:34:19.826Z,59.21
2023-05-05T01:35:18.853Z,59.11
2023-05-05T01:36:19.017Z,59.51
2023-05-05T01:37:19.030Z,59.41
2023-05-05T01:38:19.061Z,59.00
2023-05-05T01:39:18.255Z,59.41
2023-05-05T01:40:18.300Z,59.21
2023-05-05T01:41:18.428Z,59.51
2023-05-05T01:42:18.484Z,59.91
2023-05-05T01:43:18.600Z,60.22
2023-05-05T01:44:18.688Z,59.91
2023-05-05T01:45:18.849Z,59.91
2023-05-05T01:46:18.023Z,59.61
2023-05-05T01:47:18.124Z,59.81
2023-05-05T01:48:18.124Z,59.81
2023-05-05T01:49:18.241Z,59.61
2023-05-05T01:50:19.344Z,59.81
2023-05-05T01:51:18.455Z,59.61
2023-05-05T01:52:18.617Z,59.41
2023-05-05T01:53:19.681Z,59.41
2023-05-05T01:54:18.766Z,59.41
2023-05-05T01:55:18.845Z,59.51
2023-05-05T01:56:18.091Z,59.51
2023-05-05T01:57:18.124Z,59.51
2023-05-05T01:58:18.273Z,59.48
2023-05-05T01:59:18.377Z,59.38
2023-05-05T02:00:18.474Z,59.28
2023-05-05T02:01:19.539Z,59.28
2023-05-05T02:02:17.626Z,59.48
2023-05-05T02:03:17.840Z,59.38
2023-05-05T02:04:17.968Z,59.48
2023-05-05T02:05:17.949Z,59.78
2023-05-05T02:06:18.070Z,59.78
2023-05-05T02:07:18.273Z,59.89
2023-05-05T02:08:18.334Z,59.99
2023-05-05T02:09:18.617Z,59.89
2023-05-05T02:10:18.586Z,60.09
2023-05-05T02:11:17.626Z,60.19
2023-05-05T02:12:18.659Z,60.19
2023-05-05T02:13:18.951Z,60.49
2023-05-05T02:14:18.919Z,60.39
2023-05-05T02:15:18.211Z,60.29
2023-05-05T02:16:19.296Z,60.29
2023-05-05T02:17:19.255Z,60.39
2023-05-05T02:18:18.370Z,60.39
2023-05-05T02:19:18.403Z,60.39
2023-05-05T02:20:17.549Z,60.29
2023-05-05T02:21:17.655Z,60.19
2023-05-05T02:22:17.819Z,60.09
2023-05-05T02:23:17.840Z,60.19
2023-05-05T02:24:17.932Z,60.19
2023-05-05T02:25:18.219Z,60.49
2023-05-05T02:26:18.160Z,60.69
2023-05-05T02:27:18.296Z,60.49
2023-05-05T02:28:18.352Z,60.49
2023-05-05T02:29:17.468Z,60.39
2023-05-05T02:30:17.549Z,60.49
2023-05-05T02:31:17.747Z,60.60
2023-05-05T02:32:17.788Z,60.69
2023-05-05T02:33:17.863Z,61.30
2023-05-05T02:34:17.988Z,61.30
2023-05-05T02:35:18.055Z,61.10
2023-05-05T02:36:18.159Z,61.10
2023-05-05T02:37:17.238Z,61.20
2023-05-05T02:38:17.444Z,61.30
2023-05-05T02:39:17.385Z,61.30
2023-05-05T02:40:17.454Z,61.51
2023-05-05T02:41:17.568Z,61.60
2023-05-05T02:42:17.632Z,61.71
2023-05-05T02:43:17.780Z,62.01
2023-05-05T02:44:17.828Z,62.31
2023-05-05T02:45:17.958Z,62.54
2023-05-05T02:46:18.114Z,62.74
2023-05-05T02:47:17.091Z,62.85
2023-05-05T02:48:17.184Z,63.05
2023-05-05T02:49:17.332Z,63.15
2023-05-05T02:50:17.383Z,63.35
2023-05-05T02:51:17.517Z,63.55
2023-05-05T02:52:17.632Z,63.85
2023-05-05T02:53:17.714Z,63.96
2023-05-05T02:54:17.826Z,64.16
2023-05-05T02:55:17.931Z,64.06
2023-05-05T02:56:17.008Z,64.26
2023-05-05T02:57:17.108Z,64.46
2023-05-05T02:58:17.231Z,64.67
2023-05-05T02:59:17.381Z,64.70
2023-05-05T03:00:17.492Z,64.67
2023-05-05T03:01:17.581Z,64.87
2023-05-05T03:02:17.676Z,64.97
2023-05-05T03:03:17.882Z,64.87
2023-05-05T03:04:16.897Z,65.37
2023-05-05T03:05:17.012Z,65.37
2023-05-05T03:06:17.145Z,66.18
2023-05-05T03:07:18.275Z,66.18
2023-05-05T03:08:18.308Z,66.18
2023-05-05T03:09:18.384Z,66.48
2023-05-05T03:10:18.506Z,66.48
2023-05-05T03:11:18.210Z,66.38
2023-05-05T03:12:17.729Z,66.28
2023-05-05T03:13:17.769Z,66.18
2023-05-05T03:14:16.891Z,66.28
2023-05-05T03:15:17.003Z,65.98
2023-05-05T03:16:17.094Z,65.98
2023-05-05T03:17:17.280Z,66.08
2023-05-05T03:18:17.360Z,66.69
2023-05-05T03:19:17.496Z,66.89
2023-05-05T03:20:17.598Z,67.19
2023-05-05T03:21:16.679Z,68.00
2023-05-05T03:22:16.795Z,68.60
2023-05-05T03:23:16.974Z,69.31
2023-05-05T03:24:17.129Z,69.31
2023-05-05T03:25:17.113Z,69.51
2023-05-05T03:26:18.279Z,69.82
2023-05-05T03:27:17.410Z,70.12
2023-05-05T03:28:17.490Z,70.12
2023-05-05T03:29:16.547Z,70.12
2023-05-05T03:30:16.636Z,70.42
2023-05-05T03:31:16.799Z,70.73
2023-05-05T03:32:16.917Z,70.73
2023-05-05T03:33:17.039Z,70.83
2023-05-05T03:34:17.510Z,70.93
2023-05-05T03:35:17.312Z,71.03
2023-05-05T03:36:16.441Z,70.93
2023-05-05T03:37:17.654Z,70.93
2023-05-05T03:38:16.739Z,70.93
2023-05-05T03:39:16.854Z,70.93
2023-05-05T03:40:17.054Z,71.03
2023-05-05T03:41:17.121Z,70.93
2023-05-05T03:42:17.243Z,70.93
2023-05-05T03:43:17.328Z,71.03
2023-05-05T03:44:16.453Z,71.13
2023-05-05T03:45:17.531Z,71.23
2023-05-05T03:46:16.763Z,71.23
2023-05-05T03:47:16.779Z,71.23
2023-05-05T03:48:16.904Z,71.53
2023-05-05T03:49:17.980Z,71.94
2023-05-05T03:50:18.115Z,72.17
2023-05-05T03:51:16.229Z,72.28
2023-05-05T03:52:16.354Z,72.28
2023-05-05T03:53:16.410Z,72.38
2023-05-05T03:54:16.568Z,72.48
2023-05-05T03:55:16.656Z,72.58
2023-05-05T03:56:16.757Z,72.68
2023-05-05T03:57:17.201Z,72.78
2023-05-05T03:58:17.013Z,72.78
2023-05-05T03:59:18.092Z,72.78
2023-05-05T04:00:16.165Z,72.88
2023-05-05T04:01:17.239Z,72.78
2023-05-05T04:02:18.479Z,72.88
2023-05-05T04:03:16.877Z,72.88
2023-05-05T04:04:16.690Z,72.88
2023-05-05T04:05:16.785Z,72.99
2023-05-05T04:06:16.889Z,72.99
2023-05-05T04:07:17.999Z,73.08
2023-05-05T04:08:17.113Z,72.99
2023-05-05T04:09:16.264Z,73.19
2023-05-05T04:10:17.365Z,73.28
2023-05-05T04:11:17.418Z,73.19
2023-05-05T04:12:17.563Z,73.28
2023-05-05T04:13:17.736Z,73.39
2023-05-05T04:14:16.994Z,73.39
2023-05-05T04:15:15.975Z,73.39
2023-05-05T04:16:16.130Z,73.49
2023-05-05T04:17:16.169Z,73.49
2023-05-05T04:18:16.278Z,73.59
2023-05-05T04:19:16.407Z,73.69
2023-05-05T04:20:16.602Z,73.79
2023-05-05T04:21:17.680Z,73.90
2023-05-05T04:22:16.819Z,73.90
2023-05-05T04:23:15.945Z,73.90
2023-05-05T04:24:16.048Z,73.99
2023-05-05T04:25:16.226Z,74.10
2023-05-05T04:26:16.345Z,74.10
2023-05-05T04:27:16.468Z,74.19
2023-05-05T04:28:16.609Z,74.19
2023-05-05T04:29:16.736Z,74.19
2023-05-05T04:30:15.784Z,74.30
2023-05-05T04:31:16.014Z,74.30
2023-05-05T04:32:16.070Z,74.30
2023-05-05T04:33:16.169Z,74.19
2023-05-05T04:34:16.294Z,74.19
2023-05-05T04:35:16.403Z,74.19
2023-05-05T04:36:16.532Z,74.30
2023-05-05T04:37:16.724Z,74.30
2023-05-05T04:38:15.753Z,74.30
2023-05-05T04:39:15.846Z,74.50
2023-05-05T04:40:15.922Z,74.60
2023-05-05T04:41:16.046Z,74.60
2023-05-05T04:42:16.199Z,74.60
2023-05-05T04:43:16.447Z,74.70
2023-05-05T04:44:17.404Z,74.70
2023-05-05T04:45:16.466Z,74.80
2023-05-05T04:46:15.662Z,74.80
2023-05-05T04:47:16.771Z,74.80
2023-05-05T04:48:15.858Z,75.01
2023-05-05T04:49:16.092Z,75.01
2023-05-05T04:50:16.139Z,75.10
2023-05-05T04:51:17.192Z,75.10
2023-05-05T04:52:17.299Z,75.01
2023-05-05T04:53:16.340Z,75.01
2023-05-05T04:54:15.524Z,75.10
2023-05-05T04:55:15.666Z,75.21
2023-05-05T04:56:15.740Z,75.21
2023-05-05T04:57:15.873Z,75.21
2023-05-05T04:58:16.071Z,75.41
2023-05-05T04:59:16.092Z,75.41
2023-05-05T05:00:16.219Z,75.41
2023-05-05T05:01:15.293Z,75.41
2023-05-05T05:02:15.430Z,75.51
2023-05-05T05:03:15.624Z,75.51
2023-05-05T05:04:15.627Z,75.61
2023-05-05T05:05:15.776Z,75.81
2023-05-05T05:06:15.926Z,75.81
2023-05-05T05:07:15.883Z,75.81
2023-05-05T05:08:16.948Z,75.61
2023-05-05T05:09:16.148Z,75.71
2023-05-05T05:10:15.190Z,75.81
2023-05-05T05:11:15.269Z,75.71
2023-05-05T05:12:15.771Z,75.71
2023-05-05T05:13:15.605Z,75.48
2023-05-05T05:14:15.604Z,75.48
2023-05-05T05:15:15.721Z,75.57
2023-05-05T05:16:15.827Z,75.48
2023-05-05T05:17:16.067Z,75.48
2023-05-05T05:18:16.118Z,75.57
2023-05-05T05:19:15.183Z,75.57
2023-05-05T05:20:16.281Z,75.78
2023-05-05T05:21:15.459Z,76.28
2023-05-05T05:22:15.602Z,76.08
2023-05-05T05:23:15.781Z,76.08
2023-05-05T05:24:15.947Z,75.68
2023-05-05T05:25:15.019Z,76.28
2023-05-05T05:26:15.418Z,76.18
2023-05-05T05:27:15.300Z,76.18
2023-05-05T05:28:15.430Z,76.59
2023-05-05T05:29:15.640Z,77.29
2023-05-05T05:30:15.754Z,77.09
2023-05-05T05:31:15.904Z,76.48
2023-05-05T05:32:15.143Z,76.28
2023-05-05T05:33:16.128Z,76.79
2023-05-05T05:34:16.369Z,76.59
2023-05-05T05:35:15.694Z,76.79
2023-05-05T05:36:15.640Z,76.69
2023-05-05T05:37:15.756Z,76.28
2023-05-05T05:38:14.929Z,76.69
2023-05-05T05:39:15.062Z,77.39
2023-05-05T05:40:15.173Z,76.79
2023-05-05T05:41:15.325Z,76.95
2023-05-05T05:42:15.433Z,76.75
2023-05-05T05:43:15.583Z,76.65
2023-05-05T05:44:15.746Z,76.86
2023-05-05T05:45:14.777Z,77.26
2023-05-05T05:46:15.925Z,76.55
2023-05-05T05:47:15.042Z,76.35
2023-05-05T05:48:16.070Z,76.45
2023-05-05T05:49:16.227Z,76.55
2023-05-05T05:50:16.359Z,77.26
2023-05-05T05:51:16.625Z,77.46
2023-05-05T05:52:14.619Z,77.15
2023-05-05T05:53:14.821Z,76.86
2023-05-05T05:54:14.864Z,77.26
2023-05-05T05:55:15.041Z,77.46
2023-05-05T05:56:16.054Z,78.67
2023-05-05T05:57:16.186Z,78.47
2023-05-05T05:58:15.384Z,77.86
2023-05-05T05:59:16.454Z,77.56
2023-05-05T06:00:14.594Z,78.37
2023-05-05T06:01:15.665Z,77.56
2023-05-05T06:02:15.836Z,77.56
2023-05-05T06:03:16.041Z,77.56
2023-05-05T06:04:15.797Z,76.95
2023-05-05T06:05:15.326Z,76.75
2023-05-05T06:06:15.372Z,77.26
2023-05-05T06:07:14.480Z,77.36
2023-05-05T06:08:14.643Z,78.37
2023-05-05T06:09:16.836Z,78.77
2023-05-05T06:10:26.534Z,78.53
2023-05-05T06:11:16.029Z,77.02
2023-05-05T06:12:16.134Z,76.92
2023-05-05T06:13:15.425Z,77.22
2023-05-05T06:14:14.398Z,77.73
2023-05-05T06:15:14.661Z,78.63
2023-05-05T06:16:15.817Z,77.06
2023-05-05T06:17:14.921Z,77.26
2023-05-05T06:18:15.058Z,77.15
2023-05-05T06:19:15.092Z,77.56
2023-05-05T06:20:15.216Z,78.67
2023-05-05T06:21:14.284Z,78.88
2023-05-05T06:22:14.448Z,79.08
2023-05-05T06:23:14.552Z,78.77
2023-05-05T06:24:14.838Z,77.46
2023-05-05T06:25:14.773Z,77.97
2023-05-05T06:26:14.968Z,77.66
2023-05-05T06:27:15.017Z,77.56
2023-05-05T06:28:15.220Z,78.17
2023-05-05T06:29:14.206Z,77.97
2023-05-05T06:30:14.319Z,77.86
2023-05-05T06:31:15.429Z,77.06
2023-05-05T06:32:14.649Z,77.56
2023-05-05T06:33:15.644Z,78.17
2023-05-05T06:34:14.815Z,77.86
2023-05-05T06:35:15.891Z,77.86
2023-05-05T06:36:15.032Z,77.97
2023-05-05T06:37:14.174Z,78.06
2023-05-05T06:38:14.452Z,78.67
2023-05-05T06:39:16.021Z,77.97
2023-05-05T06:40:15.542Z,78.17
2023-05-05T06:41:15.653Z,78.77
2023-05-05T06:42:15.732Z,78.67
2023-05-05T06:43:14.955Z,79.88
2023-05-05T06:44:14.036Z,78.67
2023-05-05T06:45:15.060Z,77.97
2023-05-05T06:46:14.270Z,78.88
2023-05-05T06:47:14.345Z,78.27
2023-05-05T06:48:14.469Z,77.97
2023-05-05T06:49:14.740Z,78.67
2023-05-05T06:50:15.741Z,78.77
2023-05-05T06:51:14.857Z,78.97
2023-05-05T06:52:13.946Z,79.17
2023-05-05T06:53:14.060Z,78.03
2023-05-05T06:54:14.201Z,78.94
2023-05-05T06:55:14.334Z,78.53
2023-05-05T06:56:15.370Z,78.13
2023-05-05T06:57:15.480Z,78.33
2023-05-05T06:58:15.604Z,78.74
2023-05-05T06:59:15.701Z,79.04
2023-05-05T07:00:13.870Z,78.33
2023-05-05T07:01:14.035Z,79.14
2023-05-05T07:02:14.998Z,79.21
2023-05-05T07:03:14.312Z,80.21
2023-05-05T07:04:14.580Z,77.49
2023-05-05T07:05:14.468Z,78.19
2023-05-05T07:06:14.579Z,78.59
2023-05-05T07:07:14.661Z,78.30
2023-05-05T07:08:13.752Z,78.39
2023-05-05T07:09:16.406Z,77.69
2023-05-05T07:10:13.971Z,76.98
2023-05-05T07:11:14.672Z,77.49
2023-05-05T07:12:14.304Z,78.39
2023-05-05T07:13:14.427Z,78.59
2023-05-05T07:14:14.450Z,77.39
2023-05-05T07:15:26.615Z,77.28
2023-05-05T07:16:14.701Z,77.89
2023-05-05T07:17:13.840Z,78.59
2023-05-05T07:18:14.039Z,79.10
2023-05-05T07:19:14.078Z,78.19
2023-05-05T07:20:14.210Z,78.39
2023-05-05T07:21:15.298Z,77.95
2023-05-05T07:22:15.501Z,78.26
2023-05-05T07:23:13.525Z,77.55
2023-05-05T07:24:14.000Z,77.15
2023-05-05T07:25:13.784Z,78.26
2023-05-05T07:26:13.906Z,78.06
2023-05-05T07:27:14.095Z,77.45
2023-05-05T07:28:14.193Z,77.55
2023-05-05T07:29:14.390Z,77.66
2023-05-05T07:30:18.079Z,77.75
2023-05-05T07:31:13.560Z,78.06
2023-05-05T07:32:13.823Z,78.36
2023-05-05T07:33:13.745Z,76.14
2023-05-05T07:34:13.887Z,77.45
2023-05-05T07:35:14.031Z,77.04
2023-05-05T07:36:14.190Z,77.45
2023-05-05T07:37:13.250Z,78.06
2023-05-05T07:38:13.391Z,77.86
2023-05-05T07:39:13.482Z,79.23
2023-05-05T07:40:13.613Z,78.83
2023-05-05T07:41:13.798Z,79.83
2023-05-05T07:42:13.872Z,76.51
2023-05-05T07:43:13.958Z,76.71
2023-05-05T07:44:14.133Z,77.01
2023-05-05T07:45:13.198Z,76.57
2023-05-05T07:46:13.372Z,75.87
2023-05-05T07:47:13.507Z,74.79
2023-05-05T07:48:13.575Z,77.11
2023-05-05T07:49:14.669Z,75.70
2023-05-05T07:50:14.804Z,77.21
2023-05-05T07:51:14.919Z,75.80
2023-05-05T07:52:14.058Z,76.00
2023-05-05T07:53:15.111Z,75.40
2023-05-05T07:54:13.242Z,75.10
2023-05-05T07:55:13.296Z,76.20
2023-05-05T07:56:13.418Z,75.90
2023-05-05T07:57:13.509Z,75.90
2023-05-05T07:58:13.651Z,76.40
2023-05-05T07:59:14.698Z,76.87
2023-05-05T08:00:13.877Z,74.96
2023-05-05T08:01:13.924Z,75.26
2023-05-05T08:02:12.980Z,76.07
2023-05-05T08:03:13.158Z,76.67
2023-05-05T08:04:13.412Z,76.67
2023-05-05T08:05:14.345Z,75.67
2023-05-05T08:06:13.414Z,75.87
2023-05-05T08:07:14.504Z,76.87
2023-05-05T08:08:14.599Z,77.17
2023-05-05T08:09:13.793Z,75.96
2023-05-05T08:10:14.827Z,76.17
2023-05-05T08:11:13.898Z,75.46
2023-05-05T08:12:13.997Z,76.17
2023-05-05T08:13:13.205Z,76.34
2023-05-05T08:14:13.221Z,75.63
2023-05-05T08:15:13.303Z,75.53
2023-05-05T08:16:13.443Z,74.42
2023-05-05T08:17:13.530Z,76.94
2023-05-05T08:18:13.589Z,74.62
2023-05-05T08:19:27.608Z,76.14
2023-05-05T08:20:13.788Z,75.93
2023-05-05T08:21:12.981Z,75.33
2023-05-05T08:22:12.998Z,75.43
2023-05-05T08:23:13.092Z,75.33
2023-05-05T08:24:13.213Z,73.72
2023-05-05T08:25:13.355Z,74.12
2023-05-05T08:26:13.619Z,74.82
2023-05-05T08:27:14.581Z,75.93
2023-05-05T08:28:13.581Z,74.82
2023-05-05T08:29:13.711Z,75.63
2023-05-05T08:30:12.844Z,74.12
2023-05-05T08:31:12.914Z,74.52
2023-05-05T08:32:13.077Z,74.18
2023-05-05T08:33:13.191Z,75.49
2023-05-05T08:34:13.217Z,74.89
2023-05-05T08:35:13.676Z,73.28
2023-05-05T08:36:14.407Z,72.97
2023-05-05T08:37:12.512Z,75.59
2023-05-05T08:38:12.693Z,76.06
2023-05-05T08:39:12.710Z,74.95
2023-05-05T08:40:12.807Z,74.25
2023-05-05T08:41:12.923Z,74.55
2023-05-05T08:42:19.688Z,75.35
2023-05-05T08:43:14.430Z,72.61
2023-05-05T08:44:14.139Z,73.00
2023-05-05T08:45:13.329Z,73.71
2023-05-05T08:46:13.371Z,72.41
2023-05-05T08:47:12.506Z,71.50
2023-05-05T08:48:12.551Z,71.83
2023-05-05T08:49:12.773Z,73.24
2023-05-05T08:50:13.616Z,72.24
2023-05-05T08:51:13.712Z,71.83
2023-05-05T08:52:13.843Z,72.03
2023-05-05T08:53:13.904Z,72.20
2023-05-05T08:54:13.039Z,73.11
2023-05-05T08:55:13.132Z,73.00
2023-05-05T08:56:12.174Z,71.60
2023-05-05T08:57:12.296Z,72.20
2023-05-05T08:58:12.467Z,72.07
2023-05-05T08:59:12.674Z,72.27
2023-05-05T09:00:12.640Z,73.07
2023-05-05T09:01:12.725Z,71.56
2023-05-05T09:02:12.786Z,73.47
2023-05-05T09:03:13.005Z,73.18
2023-05-05T09:04:13.892Z,72.77
2023-05-05T09:05:13.099Z,72.44
2023-05-05T09:06:12.065Z,70.36
2023-05-05T09:07:12.195Z,71.67
2023-05-05T09:08:13.244Z,71.97
2023-05-05T09:09:13.325Z,70.16
2023-05-05T09:10:12.542Z,70.26
2023-05-05T09:11:12.563Z,70.76
2023-05-05T09:12:12.630Z,70.43
2023-05-05T09:13:12.843Z,70.83
2023-05-05T09:14:12.876Z,69.82
2023-05-05T09:15:12.941Z,71.33
2023-05-05T09:16:12.070Z,70.83
2023-05-05T09:17:13.203Z,71.33
2023-05-05T09:18:15.267Z,72.84
2023-05-05T09:19:12.221Z,72.20
2023-05-05T09:20:12.343Z,72.30
2023-05-05T09:21:12.431Z,71.86
2023-05-05T09:22:12.508Z,70.96
2023-05-05T09:23:12.630Z,69.85
2023-05-05T09:24:12.767Z,69.56
2023-05-05T09:25:12.775Z,71.66
2023-05-05T09:26:12.795Z,71.56
2023-05-05T09:27:12.884Z,71.06
2023-05-05T09:28:12.998Z,70.83
2023-05-05T09:29:12.235Z,69.82
2023-05-05T09:30:13.162Z,71.33
2023-05-05T09:31:12.348Z,71.13
2023-05-05T09:32:13.333Z,70.32
2023-05-05T09:33:12.475Z,69.49
2023-05-05T09:34:12.604Z,69.22
2023-05-05T09:35:13.583Z,69.32
2023-05-05T09:36:12.684Z,67.52
2023-05-05T09:37:12.684Z,68.92
2023-05-05T09:38:12.758Z,68.72
2023-05-05T09:39:12.847Z,69.96
2023-05-05T09:40:11.984Z,70.83
2023-05-05T09:41:12.064Z,69.12
2023-05-05T09:42:12.151Z,72.24
2023-05-05T09:43:12.186Z,71.03
2023-05-05T09:44:12.331Z,69.59
2023-05-05T09:45:12.432Z,68.99
2023-05-05T09:46:12.434Z,69.76
2023-05-05T09:47:26.132Z,68.05
2023-05-05T09:48:12.602Z,68.65
2023-05-05T09:49:11.696Z,68.76
2023-05-05T09:50:11.760Z,68.85
2023-05-05T09:51:11.841Z,69.96
2023-05-05T09:52:12.962Z,70.26
2023-05-05T09:53:12.054Z,70.03
2023-05-05T09:54:12.144Z,68.73
2023-05-05T09:55:13.178Z,68.59
2023-05-05T09:56:12.294Z,67.89
2023-05-05T09:57:12.409Z,66.19
2023-05-05T09:58:13.469Z,66.28
2023-05-05T09:59:12.500Z,66.99
2023-05-05T10:00:12.583Z,65.86
2023-05-05T10:01:11.704Z,65.95
2023-05-05T10:02:11.774Z,67.05
2023-05-05T10:03:11.862Z,68.26
2023-05-05T10:04:11.950Z,67.49
2023-05-05T10:05:12.059Z,68.39
2023-05-05T10:06:12.121Z,66.99
2023-05-05T10:07:12.205Z,67.42
2023-05-05T10:08:12.270Z,68.69
2023-05-05T10:09:11.341Z,66.52
2023-05-05T10:10:11.607Z,67.72
2023-05-05T10:11:11.497Z,67.76
2023-05-05T10:12:11.644Z,67.65
2023-05-05T10:13:11.898Z,68.55
2023-05-05T10:14:11.748Z,66.95
2023-05-05T10:15:11.876Z,68.65
2023-05-05T10:16:11.993Z,68.49
2023-05-05T10:17:12.031Z,68.96
2023-05-05T10:18:12.179Z,69.09
2023-05-05T10:19:11.173Z,69.76
2023-05-05T10:20:11.288Z,69.35
2023-05-05T10:21:11.418Z,69.02
2023-05-05T10:22:14.669Z,69.93
2023-05-05T10:23:11.582Z,67.72
2023-05-05T10:24:12.629Z,66.32
2023-05-05T10:25:11.808Z,66.22
2023-05-05T10:26:11.864Z,65.72
2023-05-05T10:27:12.690Z,66.12
2023-05-05T10:28:11.093Z,66.42
2023-05-05T10:29:11.140Z,66.82
2023-05-05T10:30:12.309Z,66.45
2023-05-05T10:31:24.553Z,68.15
2023-05-05T10:32:37.112Z,68.39
2023-05-05T10:33:30.128Z,68.89
2023-05-05T10:34:12.818Z,71.03
2023-05-05T10:35:11.782Z,73.03
2023-05-05T10:36:11.840Z,72.77
2023-05-05T10:37:11.866Z,72.56
2023-05-05T10:38:11.949Z,74.31
2023-05-05T10:39:11.396Z,76.42
2023-05-05T10:40:11.270Z,76.45
2023-05-05T10:41:12.241Z,79.27
2023-05-05T10:42:11.440Z,79.67
2023-05-05T10:43:11.506Z,80.11
2023-05-05T10:44:11.700Z,80.81
2023-05-05T10:45:11.796Z,81.32
2023-05-05T10:46:10.925Z,80.41
2023-05-05T10:47:11.900Z,81.05
2023-05-05T10:48:12.056Z,81.05
2023-05-05T10:49:13.446Z,83.57
2023-05-05T10:50:11.411Z,85.14
2023-05-05T10:51:13.182Z,85.24
2023-05-05T10:52:11.470Z,85.38
2023-05-05T10:53:11.594Z,86.58
2023-05-05T10:54:14.989Z,85.68
2023-05-05T10:55:10.785Z,85.17
2023-05-05T10:56:11.837Z,85.31
2023-05-05T10:57:11.983Z,86.63
2023-05-05T10:58:11.141Z,87.43
2023-05-05T10:59:11.215Z,87.63
2023-05-05T11:00:12.225Z,87.63
2023-05-05T11:01:11.503Z,87.63
2023-05-05T11:02:12.598Z,87.02
2023-05-05T11:03:10.787Z,85.96
2023-05-05T11:04:11.862Z,87.07
2023-05-05T11:05:11.772Z,88.62
2023-05-05T11:06:10.976Z,88.92
2023-05-05T11:07:14.602Z,88.96
2023-05-05T11:08:11.157Z,89.57
2023-05-05T11:09:11.255Z,89.87
2023-05-05T11:10:11.608Z,89.87
2023-05-05T11:11:11.563Z,90.17
2023-05-05T11:12:11.519Z,91.18
2023-05-05T11:13:10.781Z,88.00
2023-05-05T11:14:10.791Z,86.83
2023-05-05T11:15:10.937Z,86.47
2023-05-05T11:16:12.125Z,85.05
2023-05-05T11:17:11.217Z,85.40
2023-05-05T11:18:11.338Z,84.59
2023-05-05T11:19:10.351Z,86.30
2023-05-05T11:20:10.559Z,86.04
2023-05-05T11:21:10.584Z,84.19
2023-05-05T11:22:10.704Z,83.68
2023-05-05T11:23:11.118Z,85.19
2023-05-05T11:24:10.896Z,85.40
2023-05-05T11:25:11.076Z,86.21
2023-05-05T11:26:11.225Z,88.02
2023-05-05T11:27:10.286Z,88.02
2023-05-05T11:28:10.476Z,87.07
2023-05-05T11:29:10.756Z,87.58
2023-05-05T11:30:10.942Z,85.30
2023-05-05T11:31:11.787Z,86.61
2023-05-05T11:32:11.942Z,87.72
2023-05-05T11:33:12.251Z,87.82
2023-05-05T11:34:10.213Z,87.41
2023-05-05T11:35:10.319Z,88.02
2023-05-05T11:36:11.378Z,88.57
2023-05-05T11:37:10.551Z,89.17
2023-05-05T11:38:10.645Z,89.64
2023-05-05T11:39:10.670Z,89.54
2023-05-05T11:40:10.955Z,90.04
2023-05-05T11:41:10.946Z,89.43
2023-05-05T11:42:11.188Z,88.83
2023-05-05T11:43:10.081Z,88.53
2023-05-05T11:44:14.404Z,88.02
2023-05-05T11:45:10.295Z,88.53
2023-05-05T11:46:11.874Z,88.63
2023-05-05T11:47:10.511Z,88.63
2023-05-05T11:48:11.584Z,88.39
2023-05-05T11:49:10.655Z,88.08
2023-05-05T11:50:10.745Z,87.88
2023-05-05T11:51:12.375Z,87.07
2023-05-05T11:52:09.951Z,87.23
2023-05-05T11:53:10.011Z,85.22
2023-05-05T11:54:10.143Z,85.22
2023-05-05T11:55:10.238Z,85.22
2023-05-05T11:56:10.378Z,83.80
2023-05-05T11:57:10.472Z,83.50
2023-05-05T11:58:10.571Z,83.80
2023-05-05T11:59:10.671Z,81.08
2023-05-05T12:00:11.013Z,80.18
2023-05-05T12:01:09.835Z,81.38
2023-05-05T12:02:09.967Z,81.99
2023-05-05T12:03:10.306Z,80.11
2023-05-05T12:04:10.395Z,77.39
2023-05-05T12:05:10.332Z,78.23
2023-05-05T12:06:10.459Z,77.06
2023-05-05T12:07:09.890Z,74.66
2023-05-05T12:08:10.008Z,76.28
2023-05-05T12:09:10.154Z,78.44
2023-05-05T12:10:10.454Z,77.73
2023-05-05T12:11:10.520Z,78.85
2023-05-05T12:12:10.701Z,78.64
2023-05-05T12:13:09.779Z,78.55
2023-05-05T12:14:10.858Z,76.26
2023-05-05T12:15:10.309Z,76.12
2023-05-05T12:16:11.232Z,75.10
2023-05-05T12:17:11.423Z,75.21
2023-05-05T12:18:11.591Z,73.08
2023-05-05T12:19:09.693Z,73.28
2023-05-05T12:20:11.467Z,74.26
2023-05-05T12:21:11.108Z,74.46
2023-05-05T12:22:10.158Z,75.68
2023-05-05T12:23:10.284Z,75.78
2023-05-05T12:24:10.402Z,75.37
2023-05-05T12:25:09.596Z,76.08
2023-05-05T12:26:09.645Z,77.09
2023-05-05T12:27:09.766Z,77.80
2023-05-05T12:28:09.848Z,76.79
2023-05-05T12:29:09.979Z,78.50
2023-05-05T12:30:10.321Z,79.62
2023-05-05T12:31:10.277Z,78.41
2023-05-05T12:32:10.409Z,79.52
2023-05-05T12:33:09.418Z,78.50
2023-05-05T12:34:09.561Z,79.92
2023-05-05T12:35:11.720Z,80.83
2023-05-05T12:36:10.840Z,81.03
2023-05-05T12:37:10.741Z,80.53
2023-05-05T12:38:11.139Z,78.61
2023-05-05T12:39:11.210Z,80.93
2023-05-05T12:40:09.461Z,81.20
2023-05-05T12:41:09.487Z,80.69
2023-05-05T12:42:09.619Z,80.79
2023-05-05T12:43:10.802Z,81.10
2023-05-05T12:44:09.858Z,81.20
2023-05-05T12:45:09.961Z,81.40
2023-05-05T12:46:10.273Z,81.80
2023-05-05T12:47:10.242Z,81.16
2023-05-05T12:48:10.317Z,79.88
2023-05-05T12:49:10.525Z,80.25
2023-05-05T12:50:09.753Z,81.76
2023-05-05T12:51:09.655Z,81.26
2023-05-05T12:52:09.819Z,81.87